createdAt,value
2022-12-24T00:08:02.223Z,9.0
2022-12-24T00:20:02.291Z,8.9
2022-12-24T00:32:02.110Z,8.8
2022-12-24T00:44:02.168Z,8.7
2022-12-24T00:56:02.200Z,8.7
2022-12-24T01:08:02.111Z,8.7
2022-12-24T01:20:02.110Z,8.6
2022-12-24T01:32:02.207Z,8.6
2022-12-24T01:44:02.098Z,8.7
2022-12-24T01:56:02.218Z,8.6
2022-12-24T02:08:02.108Z,8.6
2022-12-24T02:20:02.231Z,8.6
2022-12-24T02:32:02.122Z,8.6
2022-12-24T02:44:02.099Z,8.6
2022-12-24T02:56:02.224Z,8.6
2022-12-24T03:08:02.218Z,8.7
2022-12-24T03:20:02.096Z,8.7
2022-12-24T03:32:02.403Z,8.6
2022-12-24T03:44:02.106Z,8.6
2022-12-24T03:56:02.213Z,8.5
2022-12-24T04:08:02.106Z,8.4
2022-12-24T04:20:02.109Z,8.3
2022-12-24T04:32:02.327Z,8.1
2022-12-24T04:44:02.102Z,8.1
2022-12-24T04:56:02.272Z,8.1
2022-12-24T05:08:02.226Z,8.0
2022-12-24T05:20:02.477Z,8.1
2022-12-24T05:32:02.210Z,8.2
2022-12-24T05:44:02.103Z,8.1
2022-12-24T05:56:02.231Z,7.9
2022-12-24T06:08:02.123Z,7.8
2022-12-24T06:20:02.113Z,7.8
2022-12-24T06:32:02.342Z,7.7
2022-12-24T06:44:02.111Z,7.7
2022-12-24T06:56:02.202Z,7.6
2022-12-24T07:08:02.112Z,7.6
2022-12-24T07:20:02.138Z,7.6
2022-12-24T07:32:02.111Z,7.7
2022-12-24T07:44:02.113Z,7.8
2022-12-24T07:56:04.318Z,7.8
2022-12-24T08:08:02.107Z,7.8
2022-12-24T08:20:02.193Z,7.9
2022-12-24T08:32:02.177Z,8.1
2022-12-24T08:44:02.116Z,8.0
2022-12-24T08:56:02.230Z,8.2
2022-12-24T09:08:02.225Z,8.4
2022-12-24T09:20:02.212Z,8.8
2022-12-24T09:32:02.267Z,8.8
2022-12-24T09:44:02.104Z,8.9
2022-12-24T09:56:02.122Z,8.9
2022-12-24T10:08:02.124Z,8.9
2022-12-24T10:20:02.208Z,8.8
2022-12-24T10:32:02.226Z,9.0
2022-12-24T10:44:02.103Z,9.3
2022-12-24T10:56:02.200Z,9.4
2022-12-24T11:08:02.115Z,9.4
2022-12-24T11:20:02.116Z,9.4
2022-12-24T11:32:02.109Z,9.5
2022-12-24T11:44:02.104Z,9.6
2022-12-24T11:56:02.264Z,9.8
2022-12-24T12:08:02.228Z,9.9
2022-12-24T12:20:02.121Z,9.9
2022-12-24T12:32:02.249Z,10.0
2022-12-24T12:44:02.100Z,10.0
2022-12-24T12:56:02.231Z,9.9
2022-12-24T13:08:02.221Z,10.0
2022-12-24T13:20:02.600Z,9.9
2022-12-24T13:32:02.196Z,10.0
2022-12-24T13:44:02.106Z,10.2
2022-12-24T13:56:02.128Z,10.0
2022-12-24T14:08:02.107Z,10.0
2022-12-24T14:20:02.237Z,9.9
2022-12-24T14:32:02.134Z,9.6
2022-12-24T14:44:02.118Z,9.4
2022-12-24T14:56:02.221Z,9.1
2022-12-24T15:08:02.159Z,9.1
2022-12-24T15:20:02.315Z,9.2
2022-12-24T15:32:02.189Z,9.0
2022-12-24T15:44:02.111Z,8.9
2022-12-24T15:56:02.119Z,8.8
2022-12-24T16:08:02.116Z,8.7
2022-12-24T16:20:02.122Z,8.7
2022-12-24T16:32:02.128Z,8.6
2022-12-24T16:44:02.128Z,8.5
2022-12-24T16:56:02.135Z,8.2
2022-12-24T17:08:02.588Z,8.0
2022-12-24T17:20:02.216Z,7.9
2022-12-24T17:32:02.120Z,7.8
2022-12-24T17:44:02.216Z,7.8
2022-12-24T17:56:02.101Z,7.7
2022-12-24T18:08:02.112Z,7.6
2022-12-24T18:20:02.102Z,7.8
2022-12-24T18:32:02.110Z,7.9
2022-12-24T18:44:02.211Z,7.9
2022-12-24T18:56:02.188Z,8.0
2022-12-24T19:08:22.310Z,8.0
2022-12-24T19:20:02.230Z,7.9
2022-12-24T19:32:02.327Z,7.9
2022-12-24T19:44:02.222Z,7.9
2022-12-24T19:56:02.225Z,8.0
2022-12-24T20:08:02.221Z,7.9
2022-12-24T20:20:02.240Z,7.9
2022-12-24T20:32:02.261Z,8.0
2022-12-24T20:44:02.122Z,8.0
2022-12-24T20:56:02.111Z,8.1
2022-12-24T21:08:02.110Z,8.1
2022-12-24T21:20:02.159Z,8.2
2022-12-24T21:32:02.217Z,8.2
2022-12-24T21:44:02.220Z,8.2
2022-12-24T21:56:02.223Z,8.2
2022-12-24T22:08:02.239Z,8.2
2022-12-24T22:20:02.124Z,8.2
2022-12-24T22:32:02.226Z,8.2
2022-12-24T22:44:03.545Z,8.2
2022-12-24T22:56:02.282Z,8.2
2022-12-24T23:08:02.157Z,8.2
2022-12-24T23:20:02.118Z,8.3
2022-12-24T23:32:02.188Z,8.3
2022-12-24T23:44:02.225Z,8.3
2022-12-24T23:56:02.212Z,8.3
